Hlavní strana
METAR-TAF:

METAR-TAF

Letiště :

Ventspils, Lotyšsko

zeměpisná šířka: 57-21-28N, zeměpisná délka: 021-32-39E, výška: 6 m

Aktuální stav počasí

Zpráva byla vytvořena před 33 minutami, v 13:50 UTC
Západní vítr 4 kt
Teplota 12°C
Vlhkost vzduchu 71%
Tlak 1023 hPa
Viditelnost 10 km a více
Žádná oblačnost pod 1500 m, nevyskytují se cumulonimby.

METAR: EVVA 191350Z AUTO 26004KT CAVOK 12/07 Q1023

Čas: 17:23 (14:23 UTC)


TAF: chybějící

Stav a předpovědi počasí z více než 4 000 letišť (zprávy METAR a TAF).

Červené a žluté tečky na mapě představují dostupné meteorologické stanice.

Když kurzor umístíte na tečku, zobrazí se název stanice.

Pak kliknutím zobrazíte stav a předpověď počasí.

Chcete-li změnit mapu, kliknutím na zelené tlačítko se znaménkem +mapu přiblížíte, kliknutím na zelené tlačítko se znaménkem – mapu oddálíte a kliknutím na zelené šipky přejdete na sousední mapy.


METAR-TAF: